createdAt,value
2024-03-22T00:04:21.298Z,33.70
2024-03-22T00:09:25.315Z,33.00
2024-03-22T00:19:55.098Z,31.10
2024-03-22T00:30:17.372Z,30.80
2024-03-22T00:35:19.183Z,30.80
2024-03-22T00:40:21.851Z,27.90
2024-03-22T00:45:23.581Z,27.30
2024-03-22T01:00:35.365Z,23.30
2024-03-22T01:05:37.119Z,21.40
2024-03-22T01:10:39.131Z,18.00
2024-03-22T01:21:01.342Z,18.30
2024-03-22T01:26:03.078Z,17.20
2024-03-22T01:31:04.886Z,16.80
2024-03-22T01:36:17.030Z,15.40
2024-03-22T01:46:37.833Z,16.40
2024-03-22T01:51:44.098Z,15.90
2024-03-22T01:56:45.807Z,16.20
2024-03-22T02:01:47.709Z,16.60
2024-03-22T02:06:49.406Z,16.60
2024-03-22T02:11:51.673Z,17.20
2024-03-22T02:16:53.474Z,18.30
2024-03-22T02:32:35.652Z,17.50
2024-03-22T02:37:37.317Z,16.80
2024-03-22T02:42:38.971Z,16.10
2024-03-22T02:47:44.272Z,17.20
2024-03-22T02:52:45.914Z,17.20
2024-03-22T02:57:47.575Z,16.80
2024-03-22T03:07:56.076Z,18.70
2024-03-22T03:12:57.927Z,17.10
2024-03-22T03:23:05.013Z,19.00
2024-03-22T03:28:08.530Z,19.10
2024-03-22T03:33:10.273Z,20.00
2024-03-22T03:43:16.609Z,21.40
2024-03-22T03:48:18.312Z,21.30
2024-03-22T03:58:37.615Z,22.00
2024-03-22T04:03:39.399Z,21.10
2024-03-22T04:08:45.122Z,20.40
2024-03-22T04:13:46.985Z,21.70
2024-03-22T04:18:51.901Z,20.30
2024-03-22T04:29:02.550Z,22.50
2024-03-22T04:39:27.161Z,19.70
2024-03-22T04:49:47.945Z,16.00
2024-03-22T04:54:50.550Z,14.90
2024-03-22T04:59:56.227Z,13.50
2024-03-22T05:07:16.345Z,12.70
2024-03-22T05:12:18.114Z,10.50
2024-03-22T05:17:19.738Z,8.30
2024-03-22T05:32:48.331Z,9.20
2024-03-22T05:43:48.123Z,8.30
2024-03-22T05:48:51.567Z,8.60
2024-03-22T06:13:17.538Z,8.90
2024-03-22T06:18:19.259Z,10.20
2024-03-22T06:23:20.859Z,9.50
2024-03-22T06:28:23.604Z,9.70
2024-03-22T06:33:25.389Z,9.20
2024-03-22T06:38:27.580Z,9.90
2024-03-22T07:24:53.629Z,8.80
2024-03-22T07:30:19.845Z,9.30
2024-03-22T12:31:23.982Z,11.10
2024-03-22T12:36:26.592Z,11.00
2024-03-22T12:41:30.117Z,11.50
2024-03-22T12:46:31.847Z,12.10
2024-03-22T12:51:33.559Z,12.20
2024-03-22T12:56:35.554Z,11.80
2024-03-22T13:01:38.007Z,12.40
2024-03-22T13:06:42.363Z,12.20
2024-03-22T13:11:45.283Z,11.40
2024-03-22T13:16:48.081Z,12.30
2024-03-22T13:21:50.165Z,11.80
2024-03-22T13:26:51.815Z,13.00
2024-03-22T13:31:53.607Z,12.90
2024-03-22T13:36:55.330Z,12.00
2024-03-22T13:41:58.075Z,14.60
2024-03-22T13:46:59.885Z,13.30
2024-03-22T13:52:01.692Z,13.80
2024-03-22T13:57:04.442Z,13.70
2024-03-22T14:02:07.421Z,16.10
2024-03-22T14:07:10.467Z,15.70
2024-03-22T14:12:12.728Z,16.30
2024-03-22T14:17:14.487Z,14.50
2024-03-22T14:22:16.192Z,17.20
2024-03-22T14:27:18.142Z,53.10
2024-03-22T14:32:19.828Z,35.80
2024-03-22T14:37:21.497Z,20.60
2024-03-22T14:42:23.218Z,14.30
2024-03-22T14:47:24.915Z,14.80
2024-03-22T14:52:26.912Z,13.70
2024-03-22T14:57:28.893Z,15.00
2024-03-22T15:02:30.606Z,14.60
2024-03-22T15:07:32.561Z,14.70
2024-03-22T15:12:34.261Z,14.80
2024-03-22T15:17:36.103Z,14.00
2024-03-22T15:22:37.716Z,14.30
2024-03-22T15:27:40.395Z,13.10
2024-03-22T15:32:42.657Z,14.00
2024-03-22T15:37:46.603Z,15.20
2024-03-22T15:42:48.350Z,16.20
2024-03-22T15:47:50.052Z,14.80
2024-03-22T15:52:51.855Z,15.70
2024-03-22T15:57:56.339Z,15.90
2024-03-22T16:02:59.036Z,14.90
2024-03-22T16:08:00.718Z,15.30
2024-03-22T16:13:02.685Z,18.10
2024-03-22T16:18:05.299Z,26.90
2024-03-22T16:23:08.317Z,25.30
2024-03-22T16:28:13.435Z,25.30
2024-03-22T16:33:15.080Z,29.30
2024-03-22T16:38:16.720Z,65.10
2024-03-22T16:43:18.456Z,49.70
2024-03-22T16:48:20.335Z,57.80
2024-03-22T16:53:25.807Z,33.80
2024-03-22T16:58:27.686Z,31.60
2024-03-22T17:03:29.357Z,38.00
2024-03-22T17:08:31.076Z,37.30
2024-03-22T17:13:32.743Z,26.70
2024-03-22T17:18:34.905Z,48.40
2024-03-22T17:23:36.898Z,29.70
2024-03-22T17:28:38.586Z,31.60
2024-03-22T17:33:40.317Z,66.00
2024-03-22T17:38:41.995Z,53.50
2024-03-22T17:43:44.398Z,41.30
2024-03-22T17:48:46.081Z,39.70
2024-03-22T17:53:47.833Z,32.00
2024-03-22T17:58:49.574Z,23.60
2024-03-22T18:03:52.411Z,24.80
2024-03-22T18:08:54.115Z,28.90
2024-03-22T18:13:56.111Z,28.20
2024-03-22T18:18:57.795Z,24.60
2024-03-22T18:23:59.567Z,20.20
2024-03-22T18:29:01.294Z,18.70
2024-03-22T18:34:06.330Z,17.60
2024-03-22T18:39:08.094Z,16.00
2024-03-22T18:44:09.878Z,13.60
2024-03-22T18:49:11.586Z,13.20
2024-03-22T18:54:14.754Z,14.50
2024-03-22T18:59:16.636Z,15.90
2024-03-22T19:04:18.388Z,15.10
2024-03-22T19:09:20.078Z,18.70
2024-03-22T19:14:21.831Z,16.50
2024-03-22T19:19:23.772Z,13.90
2024-03-22T19:24:25.434Z,18.30
2024-03-22T19:29:28.549Z,26.90
2024-03-22T19:34:30.676Z,32.00
2024-03-22T19:39:33.674Z,54.80
2024-03-22T19:44:39.303Z,50.50
2024-03-22T19:49:42.587Z,26.50
2024-03-22T19:54:44.774Z,23.50
2024-03-22T19:59:47.575Z,25.90
2024-03-22T20:04:49.248Z,26.80
2024-03-22T20:09:51.061Z,28.10
2024-03-22T20:14:52.766Z,29.30
2024-03-22T20:19:54.556Z,116.00
2024-03-22T20:24:56.396Z,53.30
2024-03-22T20:29:58.123Z,40.80
2024-03-22T20:34:59.836Z,31.80
2024-03-22T20:40:01.432Z,25.30
2024-03-22T20:45:03.053Z,32.30
2024-03-22T20:50:05.521Z,32.90
2024-03-22T20:55:07.172Z,20.70
2024-03-22T21:00:11.456Z,22.10
2024-03-22T21:05:14.799Z,22.30
2024-03-22T21:10:18.438Z,26.40
2024-03-22T21:15:20.100Z,30.10
2024-03-22T21:20:21.698Z,65.10
2024-03-22T21:25:23.294Z,41.00
2024-03-22T21:30:25.078Z,47.90
2024-03-22T21:35:27.008Z,31.20
2024-03-22T21:40:28.995Z,24.60
2024-03-22T21:45:32.308Z,24.60
2024-03-22T21:50:34.045Z,25.40
2024-03-22T21:55:35.679Z,26.60
2024-03-22T22:00:37.370Z,29.80
2024-03-22T22:10:46.492Z,28.20
2024-03-22T22:15:48.846Z,27.80
2024-03-22T22:20:50.458Z,31.70
2024-03-22T22:25:52.660Z,30.70
2024-03-22T22:30:54.366Z,31.30
2024-03-22T22:35:56.038Z,36.80
2024-03-22T22:40:57.668Z,36.40
2024-03-22T22:45:59.410Z,34.90
2024-03-22T22:51:01.270Z,35.00
2024-03-22T22:56:03.327Z,38.50
2024-03-22T23:01:05.044Z,39.90
2024-03-22T23:06:06.750Z,46.20
2024-03-22T23:11:08.534Z,38.00
2024-03-22T23:16:13.185Z,34.30
2024-03-22T23:21:14.866Z,31.10
2024-03-22T23:26:16.516Z,40.90
2024-03-22T23:31:18.234Z,38.20
2024-03-22T23:36:20.053Z,33.20
2024-03-22T23:41:21.758Z,37.00
2024-03-22T23:46:23.607Z,43.00
2024-03-22T23:51:25.317Z,42.40
2024-03-22T23:56:27.049Z,45.90
